createdAt,value
2023-05-23T00:02:31.754Z,4.90
2023-05-23T00:05:34.703Z,4.47
2023-05-23T00:08:36.499Z,4.72
2023-05-23T00:11:53.524Z,4.35
2023-05-23T00:14:56.071Z,4.93
2023-05-23T00:17:57.898Z,4.28
2023-05-23T00:21:00.262Z,4.60
2023-05-23T00:24:05.018Z,5.05
2023-05-23T00:27:06.618Z,5.03
2023-05-23T00:30:08.349Z,5.53
2023-05-23T00:33:10.383Z,5.32
2023-05-23T00:36:13.419Z,5.20
2023-05-23T00:39:19.819Z,5.03
2023-05-23T00:45:24.062Z,4.62
2023-05-23T00:48:29.394Z,4.45
2023-05-23T00:51:32.036Z,4.10
2023-05-23T00:54:37.535Z,5.18
2023-05-23T00:57:44.683Z,4.82
2023-05-23T01:00:46.400Z,4.57
2023-05-23T01:03:48.657Z,4.60
2023-05-23T01:06:50.384Z,5.37
2023-05-23T01:09:52.063Z,5.30
2023-05-23T01:12:57.535Z,5.00
2023-05-23T01:16:07.599Z,5.00
2023-05-23T01:19:28.175Z,4.80
2023-05-23T01:22:29.878Z,4.62
2023-05-23T01:25:50.296Z,5.25
2023-05-23T01:28:55.008Z,5.07
2023-05-23T01:31:58.308Z,4.82
2023-05-23T01:35:00.927Z,5.03
2023-05-23T01:38:03.273Z,5.12
2023-05-23T01:41:05.078Z,5.00
2023-05-23T01:44:09.660Z,5.18
2023-05-23T01:47:12.308Z,5.28
2023-05-23T01:50:14.326Z,5.20
2023-05-23T01:53:21.133Z,4.93
2023-05-23T01:56:23.029Z,4.87
2023-05-23T01:59:24.886Z,5.50
2023-05-23T02:02:26.628Z,4.65
2023-05-23T02:05:28.248Z,5.32
2023-05-23T02:08:29.837Z,5.45
2023-05-23T02:11:31.380Z,5.28
2023-05-23T02:14:33.427Z,5.80
2023-05-23T02:17:35.045Z,5.78
2023-05-23T02:20:36.628Z,6.12
2023-05-23T02:23:38.219Z,5.60
2023-05-23T02:26:39.819Z,5.68
2023-05-23T02:29:41.543Z,5.95
2023-05-23T02:32:43.181Z,5.97
2023-05-23T02:35:44.744Z,5.25
2023-05-23T02:38:46.325Z,5.82
2023-05-23T02:41:47.862Z,5.45
2023-05-23T02:44:49.955Z,6.22
2023-05-23T02:47:51.800Z,5.78
2023-05-23T02:50:53.640Z,6.22
2023-05-23T02:53:55.509Z,6.62
2023-05-23T02:56:58.977Z,5.82
2023-05-23T03:00:01.205Z,5.68
2023-05-23T03:03:03.027Z,5.85
2023-05-23T03:06:10.776Z,5.75
2023-05-23T03:12:14.626Z,5.60
2023-05-23T03:15:16.403Z,5.95
2023-05-23T03:18:18.241Z,5.97
2023-05-23T03:21:20.031Z,6.12
2023-05-23T03:24:22.102Z,7.22
2023-05-23T03:27:23.897Z,6.30
2023-05-23T03:30:26.080Z,5.95
2023-05-23T03:33:28.138Z,5.90
2023-05-23T03:36:29.833Z,5.85
2023-05-23T03:39:31.675Z,6.40
2023-05-23T03:42:33.619Z,6.37
2023-05-23T03:45:36.700Z,5.37
2023-05-23T03:48:38.447Z,6.03
2023-05-23T03:51:40.163Z,6.15
2023-05-23T03:54:42.191Z,6.03
2023-05-23T03:57:44.182Z,6.70
2023-05-23T04:00:46.882Z,6.35
2023-05-23T04:03:49.254Z,5.93
2023-05-23T04:06:51.301Z,6.97
2023-05-23T04:09:52.966Z,7.65
2023-05-23T04:12:54.686Z,7.22
2023-05-23T04:15:56.531Z,7.45
2023-05-23T04:18:59.192Z,7.80
2023-05-23T04:22:00.899Z,8.80
2023-05-23T04:25:02.436Z,7.25
2023-05-23T04:28:05.468Z,6.75
2023-05-23T04:31:07.070Z,6.87
2023-05-23T04:34:09.833Z,6.25
2023-05-23T04:37:11.757Z,6.25
2023-05-23T04:40:13.625Z,5.70
2023-05-23T04:43:16.441Z,5.45
2023-05-23T04:46:19.092Z,4.68
2023-05-23T04:49:22.907Z,4.75
2023-05-23T04:52:25.551Z,4.62
2023-05-23T04:55:27.356Z,3.50
2023-05-23T04:58:29.084Z,3.67
2023-05-23T05:01:31.451Z,4.97
2023-05-23T05:04:33.107Z,4.15
2023-05-23T05:07:35.830Z,3.92
2023-05-23T05:10:38.721Z,3.80
2023-05-23T05:13:40.643Z,4.30
2023-05-23T05:16:42.915Z,3.83
2023-05-23T05:19:44.853Z,3.67
2023-05-23T05:22:46.612Z,4.00
2023-05-23T05:25:48.218Z,3.97
2023-05-23T05:28:50.845Z,3.30
2023-05-23T05:31:53.892Z,3.87
2023-05-23T05:34:55.661Z,3.90
2023-05-23T05:37:57.325Z,3.67
2023-05-23T05:41:10.305Z,3.70
2023-05-23T05:44:13.037Z,4.12
2023-05-23T05:47:16.436Z,3.35
2023-05-23T05:50:20.444Z,3.72
2023-05-23T05:53:23.188Z,4.07
2023-05-23T05:56:24.875Z,4.15
2023-05-23T05:59:27.151Z,4.32
2023-05-23T06:02:28.930Z,4.18
2023-05-23T06:05:31.450Z,3.90
2023-05-23T06:08:34.101Z,4.12
2023-05-23T06:11:40.981Z,3.78
2023-05-23T06:14:43.156Z,4.10
2023-05-23T06:17:48.574Z,4.10
2023-05-23T06:20:52.530Z,4.50
2023-05-23T06:23:58.933Z,4.07
2023-05-23T06:27:02.080Z,4.23
2023-05-23T06:30:07.200Z,4.10
2023-05-23T06:33:11.575Z,4.18
2023-05-23T06:36:20.023Z,4.30
2023-05-23T06:39:26.222Z,4.22
2023-05-23T06:42:28.846Z,4.22
2023-05-23T06:45:30.760Z,4.25
2023-05-23T06:48:33.938Z,4.20
2023-05-23T06:51:38.560Z,4.40
2023-05-23T06:54:40.334Z,4.35
2023-05-23T06:57:41.997Z,4.05
2023-05-23T07:00:43.802Z,3.67
2023-05-23T07:03:45.933Z,3.03
2023-05-23T07:06:47.515Z,3.50
2023-05-23T07:09:49.018Z,3.28
2023-05-23T07:12:50.669Z,3.85
2023-05-23T07:15:52.232Z,3.50
2023-05-23T07:18:53.846Z,3.62
2023-05-23T07:21:55.371Z,3.40
2023-05-23T07:24:57.158Z,3.42
2023-05-23T07:27:58.798Z,3.30
2023-05-23T07:31:00.882Z,3.60
2023-05-23T07:34:05.015Z,4.28
2023-05-23T07:37:06.634Z,3.50
2023-05-23T07:40:09.615Z,3.17
2023-05-23T07:43:11.172Z,3.90
2023-05-23T07:46:12.722Z,3.55
2023-05-23T07:49:14.263Z,3.22
2023-05-23T07:52:15.817Z,3.50
2023-05-23T07:55:17.421Z,4.05
2023-05-23T07:58:18.944Z,3.55
2023-05-23T08:01:20.522Z,2.95
2023-05-23T08:04:22.228Z,3.40
2023-05-23T08:07:23.838Z,3.17
2023-05-23T08:10:28.325Z,3.30
2023-05-23T08:13:30.609Z,3.10
2023-05-23T08:16:32.206Z,3.30
2023-05-23T08:19:33.914Z,3.17
2023-05-23T08:22:35.526Z,3.30
2023-05-23T08:25:37.117Z,3.17
2023-05-23T08:28:38.662Z,3.00
2023-05-23T08:31:40.265Z,2.85
2023-05-23T08:34:42.288Z,2.58
2023-05-23T08:37:46.282Z,3.00
2023-05-23T08:40:52.319Z,2.95
2023-05-23T08:46:55.843Z,2.62
2023-05-23T08:49:58.200Z,2.45
2023-05-23T08:52:59.906Z,5.53
2023-05-23T08:56:02.882Z,3.10
2023-05-23T08:59:04.639Z,3.83
2023-05-23T09:02:08.678Z,2.50
2023-05-23T09:05:10.589Z,2.53
2023-05-23T09:08:13.264Z,3.00
2023-05-23T09:11:14.875Z,2.40
2023-05-23T09:14:18.147Z,2.72
2023-05-23T09:17:19.867Z,2.70
2023-05-23T09:20:21.972Z,3.00
2023-05-23T09:23:23.554Z,2.78
2023-05-23T09:26:25.106Z,2.33
2023-05-23T09:29:27.954Z,2.08
2023-05-23T09:32:29.567Z,4.20
2023-05-23T09:35:31.253Z,2.53
2023-05-23T09:38:38.779Z,2.47
2023-05-23T09:41:40.452Z,2.20
2023-05-23T09:44:43.056Z,2.40
2023-05-23T09:47:54.229Z,2.22
2023-05-23T09:50:56.067Z,2.28
2023-05-23T09:53:57.671Z,2.35
2023-05-23T09:57:01.467Z,2.67
2023-05-23T10:00:06.734Z,2.60
2023-05-23T10:03:15.205Z,2.47
2023-05-23T10:06:29.323Z,2.70
2023-05-23T10:09:33.379Z,2.80
2023-05-23T10:12:38.016Z,2.90
2023-05-23T10:15:41.057Z,3.00
2023-05-23T10:18:48.920Z,2.58
2023-05-23T10:21:52.795Z,2.70
2023-05-23T10:24:54.416Z,3.00
2023-05-23T10:28:01.671Z,3.00
2023-05-23T10:31:05.218Z,3.10
2023-05-23T10:34:25.656Z,3.08
2023-05-23T10:37:41.053Z,3.75
2023-05-23T10:41:05.889Z,3.05
2023-05-23T10:44:12.454Z,3.12
2023-05-23T10:47:25.871Z,3.10
2023-05-23T10:50:31.950Z,3.37
2023-05-23T10:53:37.897Z,3.22
2023-05-23T10:56:39.441Z,3.35
2023-05-23T10:59:41.102Z,2.75
2023-05-23T11:02:59.686Z,3.45
2023-05-23T11:06:05.122Z,3.15
2023-05-23T11:09:10.086Z,3.20
2023-05-23T11:12:11.655Z,3.40
2023-05-23T11:15:22.498Z,2.90
2023-05-23T11:18:26.673Z,3.20
2023-05-23T11:21:29.394Z,2.95
2023-05-23T11:24:52.365Z,2.92
2023-05-23T11:27:54.180Z,3.05
2023-05-23T11:30:57.184Z,2.92
2023-05-23T11:33:58.736Z,3.05
2023-05-23T11:37:00.746Z,2.95
2023-05-23T11:40:37.892Z,3.30
2023-05-23T11:43:49.670Z,3.45
2023-05-23T11:47:00.730Z,3.35
2023-05-23T11:50:02.257Z,3.03
2023-05-23T11:53:03.859Z,3.35
2023-05-23T11:56:05.666Z,4.12
2023-05-23T11:59:07.208Z,3.22
2023-05-23T12:02:08.863Z,3.30
2023-05-23T12:05:11.397Z,3.00
2023-05-23T12:08:14.090Z,3.47
2023-05-23T12:11:15.774Z,3.40
2023-05-23T12:14:17.785Z,3.47
2023-05-23T12:17:19.462Z,3.10
2023-05-23T12:20:21.455Z,2.85
2023-05-23T12:23:23.280Z,2.60
2023-05-23T12:26:24.832Z,2.40
2023-05-23T12:29:32.038Z,2.50
2023-05-23T12:32:36.382Z,2.83
2023-05-23T12:35:38.323Z,2.50
2023-05-23T12:38:41.037Z,2.40
2023-05-23T12:41:43.702Z,2.45
2023-05-23T12:44:46.174Z,3.08
2023-05-23T12:47:47.921Z,2.50
2023-05-23T12:50:49.552Z,2.60
2023-05-23T12:53:51.866Z,3.03
2023-05-23T12:56:53.401Z,2.42
2023-05-23T12:59:54.900Z,2.58
2023-05-23T13:02:56.765Z,2.70
2023-05-23T13:05:58.765Z,2.55
2023-05-23T13:09:00.347Z,2.92
2023-05-23T13:12:01.879Z,2.30
2023-05-23T13:15:03.576Z,2.75
2023-05-23T13:18:05.348Z,2.50
2023-05-23T13:21:06.937Z,2.50
2023-05-23T13:24:08.958Z,2.72
2023-05-23T13:27:10.822Z,2.65
2023-05-23T13:30:12.488Z,2.22
2023-05-23T13:33:14.140Z,2.67
2023-05-23T13:36:15.737Z,2.40
2023-05-23T13:39:19.699Z,2.40
2023-05-23T13:42:21.549Z,2.70
2023-05-23T13:45:23.428Z,2.60
2023-05-23T13:48:25.000Z,2.55
2023-05-23T13:51:26.591Z,2.83
2023-05-23T13:54:28.140Z,2.80
2023-05-23T13:57:29.724Z,3.00
2023-05-23T14:00:31.266Z,2.83
2023-05-23T14:03:32.847Z,3.37
2023-05-23T14:06:34.405Z,3.40
2023-05-23T14:09:36.281Z,3.35
2023-05-23T14:12:37.932Z,3.03
2023-05-23T14:15:39.772Z,3.37
2023-05-23T14:18:41.491Z,3.28
2023-05-23T14:21:44.952Z,3.75
2023-05-23T14:24:46.769Z,3.40
2023-05-23T14:27:48.380Z,3.58
2023-05-23T14:30:49.903Z,3.92
2023-05-23T14:33:51.792Z,3.67
2023-05-23T14:36:53.916Z,3.62
2023-05-23T14:39:55.455Z,3.58
2023-05-23T14:42:57.009Z,4.05
2023-05-23T14:45:59.280Z,3.70
2023-05-23T14:49:00.900Z,4.20
2023-05-23T14:52:02.430Z,4.22
2023-05-23T14:55:04.062Z,3.90
2023-05-23T14:58:06.456Z,3.67
2023-05-23T15:01:08.073Z,3.60
2023-05-23T15:04:10.137Z,3.78
2023-05-23T15:07:13.700Z,4.10
2023-05-23T15:10:15.273Z,4.30
2023-05-23T15:13:16.827Z,3.83
2023-05-23T15:16:18.483Z,3.35
2023-05-23T15:19:20.047Z,4.15
2023-05-23T15:22:35.211Z,3.70
2023-05-23T15:25:49.543Z,3.92
2023-05-23T15:28:51.753Z,4.62
2023-05-23T15:31:53.788Z,4.10
2023-05-23T15:34:55.413Z,4.82
2023-05-23T15:37:56.977Z,4.30
2023-05-23T15:40:59.521Z,4.35
2023-05-23T15:44:01.154Z,10.40
2023-05-23T15:47:02.804Z,9.13
2023-05-23T15:50:04.672Z,5.03
2023-05-23T15:53:06.403Z,12.70
2023-05-23T15:56:08.076Z,28.83
2023-05-23T15:59:09.637Z,28.05
2023-05-23T16:02:11.225Z,25.15
2023-05-23T16:05:12.788Z,3.95
2023-05-23T16:08:14.344Z,28.17
2023-05-23T16:11:15.933Z,6.78
2023-05-23T16:14:17.538Z,23.35
2023-05-23T16:17:19.146Z,18.33
2023-05-23T16:20:20.783Z,10.55
2023-05-23T16:23:22.321Z,15.77
2023-05-23T16:26:23.846Z,14.45
2023-05-23T16:29:25.431Z,11.93
2023-05-23T16:32:28.295Z,4.60
2023-05-23T16:35:29.839Z,4.50
2023-05-23T16:38:31.768Z,4.82
2023-05-23T16:41:33.270Z,3.60
2023-05-23T16:44:34.923Z,3.85
2023-05-23T16:47:36.583Z,3.75
2023-05-23T16:50:38.129Z,4.15
2023-05-23T16:53:39.676Z,4.68
2023-05-23T16:56:41.299Z,4.45
2023-05-23T16:59:42.884Z,4.07
2023-05-23T17:02:44.635Z,5.07
2023-05-23T17:05:46.302Z,6.00
2023-05-23T17:08:47.861Z,6.37
2023-05-23T17:11:50.056Z,6.10
2023-05-23T17:14:51.698Z,6.82
2023-05-23T17:17:53.304Z,6.70
2023-05-23T17:20:55.003Z,6.57
2023-05-23T17:23:56.536Z,7.62
2023-05-23T17:26:58.065Z,6.78
2023-05-23T17:30:00.014Z,6.90
2023-05-23T17:33:01.637Z,5.78
2023-05-23T17:36:03.677Z,5.70
2023-05-23T17:39:05.361Z,5.97
2023-05-23T17:42:07.117Z,5.37
2023-05-23T17:45:11.837Z,6.45
2023-05-23T17:48:14.872Z,5.40
2023-05-23T17:51:16.885Z,5.12
2023-05-23T17:54:18.411Z,5.70
2023-05-23T17:57:20.057Z,4.12
2023-05-23T18:00:21.698Z,5.18
2023-05-23T18:03:24.370Z,5.32
2023-05-23T18:06:27.088Z,5.30
2023-05-23T18:09:28.757Z,5.22
2023-05-23T18:12:30.452Z,6.40
2023-05-23T18:15:32.087Z,5.28
2023-05-23T18:18:33.743Z,6.20
2023-05-23T18:21:35.617Z,5.78
2023-05-23T18:24:37.254Z,4.12
2023-05-23T18:27:39.003Z,4.90
2023-05-23T18:30:40.740Z,4.28
2023-05-23T18:33:42.644Z,3.80
2023-05-23T18:36:45.348Z,3.00
2023-05-23T18:39:47.004Z,2.65
2023-05-23T18:42:50.363Z,2.80
2023-05-23T18:45:52.174Z,3.03
2023-05-23T18:48:53.910Z,3.45
2023-05-23T18:51:55.816Z,4.05
2023-05-23T18:54:57.687Z,5.05
2023-05-23T18:57:59.674Z,5.00
2023-05-23T19:01:03.903Z,5.12
2023-05-23T19:04:05.810Z,5.00
2023-05-23T19:07:08.326Z,5.65
2023-05-23T19:10:10.665Z,5.03
2023-05-23T19:13:13.880Z,5.05
2023-05-23T19:16:15.639Z,5.80
2023-05-23T19:19:17.334Z,5.45
2023-05-23T19:22:18.973Z,6.03
2023-05-23T19:25:21.028Z,6.37
2023-05-23T19:28:22.611Z,5.28
2023-05-23T19:31:24.171Z,5.50
2023-05-23T19:34:25.800Z,5.62
2023-05-23T19:37:27.368Z,5.80
2023-05-23T19:40:28.964Z,5.60
2023-05-23T19:43:30.515Z,6.10
2023-05-23T19:46:32.089Z,5.20
2023-05-23T19:49:33.795Z,5.82
2023-05-23T19:52:35.490Z,5.62
2023-05-23T19:55:38.077Z,5.07
2023-05-23T19:58:39.638Z,5.32
2023-05-23T20:01:41.585Z,4.70
2023-05-23T20:04:43.232Z,4.93
2023-05-23T20:07:45.206Z,5.00
2023-05-23T20:10:47.154Z,4.72
2023-05-23T20:13:48.712Z,4.45
2023-05-23T20:16:50.286Z,4.62
2023-05-23T20:19:51.874Z,4.78
2023-05-23T20:22:53.441Z,4.30
2023-05-23T20:25:54.981Z,4.68
2023-05-23T20:28:56.512Z,4.70
2023-05-23T20:31:58.045Z,4.30
2023-05-23T20:34:59.608Z,3.85
2023-05-23T20:38:01.424Z,3.75
2023-05-23T20:41:07.498Z,6.25
2023-05-23T20:44:14.142Z,4.55
2023-05-23T20:47:15.818Z,5.28
2023-05-23T20:50:19.167Z,4.80
2023-05-23T20:53:21.129Z,5.18
2023-05-23T20:56:22.829Z,4.82
2023-05-23T20:59:26.351Z,4.85
2023-05-23T21:02:27.959Z,5.78
2023-05-23T21:05:29.623Z,5.28
2023-05-23T21:08:33.065Z,5.25
2023-05-23T21:11:37.284Z,5.57
2023-05-23T21:14:38.824Z,5.85
2023-05-23T21:17:40.452Z,6.45
2023-05-23T21:20:42.461Z,5.78
2023-05-23T21:23:44.269Z,5.78
2023-05-23T21:26:45.836Z,6.22
2023-05-23T21:29:48.315Z,5.78
2023-05-23T21:32:50.712Z,5.90
2023-05-23T21:35:52.315Z,5.43
2023-05-23T21:38:53.913Z,5.45
2023-05-23T21:41:55.520Z,5.55
2023-05-23T21:44:57.103Z,5.68
2023-05-23T21:47:58.705Z,5.90
2023-05-23T21:51:00.262Z,5.90
2023-05-23T21:54:01.781Z,6.00
2023-05-23T21:57:04.292Z,5.97
2023-05-23T22:00:06.286Z,5.87
2023-05-23T22:03:07.974Z,6.25
2023-05-23T22:06:09.566Z,5.90
2023-05-23T22:09:11.707Z,6.00
2023-05-23T22:12:13.910Z,5.62
2023-05-23T22:15:15.585Z,6.07
2023-05-23T22:18:17.213Z,6.57
2023-05-23T22:21:18.814Z,5.60
2023-05-23T22:24:20.336Z,5.93
2023-05-23T22:27:21.950Z,5.65
2023-05-23T22:30:23.508Z,5.85
2023-05-23T22:33:25.119Z,5.95
2023-05-23T22:36:26.969Z,5.47
2023-05-23T22:39:28.548Z,6.32
2023-05-23T22:42:30.109Z,6.03
2023-05-23T22:45:33.361Z,6.50
2023-05-23T22:48:34.951Z,6.35
2023-05-23T22:51:36.635Z,5.90
2023-05-23T22:54:38.207Z,6.55
2023-05-23T22:57:39.820Z,6.68
2023-05-23T23:00:41.959Z,6.50
2023-05-23T23:03:43.711Z,6.50
2023-05-23T23:06:45.580Z,6.70
2023-05-23T23:09:47.233Z,6.20
2023-05-23T23:12:48.772Z,6.85
2023-05-23T23:15:50.377Z,6.10
2023-05-23T23:18:52.717Z,6.20
2023-05-23T23:21:54.236Z,5.93
2023-05-23T23:24:55.798Z,6.20
2023-05-23T23:27:57.337Z,6.07
2023-05-23T23:30:59.058Z,6.68
2023-05-23T23:34:00.680Z,6.72
2023-05-23T23:37:02.332Z,6.55
2023-05-23T23:40:05.110Z,6.37
2023-05-23T23:43:06.670Z,6.37
2023-05-23T23:46:08.309Z,6.82
2023-05-23T23:49:09.946Z,6.40
2023-05-23T23:52:11.495Z,6.82
2023-05-23T23:55:13.118Z,5.85
2023-05-23T23:58:14.749Z,5.72
